Terminal Aerodrome Forecast
Issued by NWS

Home | Current Version | Previous Version | Text Only | Print | Product List | Glossary On
Versions: 1 2 3 4 5 6 7 8 9 10 11 12 13 14 15 16 17 18 19
000
FTUS46 KPDT 241300 AAA
TAFRDM
TAF AMD
KRDM 241329Z 2413/2512 19014G21KT P6SM -SHRA SCT050 BKN070
     FM241700 24020G28KT P6SM BKN060
     FM242100 28022G32KT P6SM -SHRA BKN060
     FM250200 30012G19KT P6SM BKN060 OVC120
     FM250500 VRB05KT P6SM -SHRASN BKN025 OVC040=

USA.gov is the U.S. government's official web portal to all federal, state and local government web resources and services.